sensor_id;sensor_type;location;lat;lon;timestamp;P1;durP1;ratioP1;P2;durP2;ratioP2
15616;SDS011;7908;51.688;7.130;2023-08-31T00:01:40;17.57;;;11.23;;
15616;SDS011;7908;51.688;7.130;2023-08-31T00:04:08;11.70;;;10.43;;
15616;SDS011;7908;51.688;7.130;2023-08-31T00:06:41;14.00;;;10.23;;
15616;SDS011;7908;51.688;7.130;2023-08-31T00:09:13;17.10;;;10.30;;
15616;SDS011;7908;51.688;7.130;2023-08-31T00:11:41;13.40;;;9.60;;
15616;SDS011;7908;51.688;7.130;2023-08-31T00:14:10;13.73;;;9.50;;
15616;SDS011;7908;51.688;7.130;2023-08-31T00:16:38;13.30;;;10.00;;
15616;SDS011;7908;51.688;7.130;2023-08-31T00:19:07;16.90;;;9.50;;
15616;SDS011;7908;51.688;7.130;2023-08-31T00:21:36;13.10;;;8.50;;
15616;SDS011;7908;51.688;7.130;2023-08-31T00:24:04;11.40;;;8.10;;
15616;SDS011;7908;51.688;7.130;2023-08-31T00:26:35;16.77;;;9.03;;
15616;SDS011;7908;51.688;7.130;2023-08-31T00:29:08;13.27;;;8.73;;
15616;SDS011;7908;51.688;7.130;2023-08-31T00:31:37;16.07;;;8.10;;
15616;SDS011;7908;51.688;7.130;2023-08-31T00:34:06;11.27;;;8.33;;
15616;SDS011;7908;51.688;7.130;2023-08-31T00:36:34;11.50;;;8.20;;
15616;SDS011;7908;51.688;7.130;2023-08-31T00:39:04;11.37;;;8.03;;
15616;SDS011;7908;51.688;7.130;2023-08-31T00:41:38;10.87;;;8.27;;
15616;SDS011;7908;51.688;7.130;2023-08-31T00:44:07;13.83;;;8.07;;
15616;SDS011;7908;51.688;7.130;2023-08-31T00:46:36;11.20;;;7.87;;
15616;SDS011;7908;51.688;7.130;2023-08-31T00:49:04;13.17;;;7.93;;
15616;SDS011;7908;51.688;7.130;2023-08-31T00:51:33;11.70;;;7.53;;
15616;SDS011;7908;51.688;7.130;2023-08-31T00:54:03;16.00;;;8.40;;
15616;SDS011;7908;51.688;7.130;2023-08-31T00:56:32;11.37;;;8.07;;
15616;SDS011;7908;51.688;7.130;2023-08-31T00:59:02;16.63;;;8.37;;
15616;SDS011;7908;51.688;7.130;2023-08-31T01:01:32;12.87;;;7.67;;
15616;SDS011;7908;51.688;7.130;2023-08-31T01:04:12;13.97;;;7.83;;
15616;SDS011;7908;51.688;7.130;2023-08-31T01:06:49;14.17;;;7.90;;
15616;SDS011;7908;51.688;7.130;2023-08-31T01:09:31;13.07;;;8.33;;
15616;SDS011;7908;51.688;7.130;2023-08-31T01:12:05;10.53;;;7.07;;
15616;SDS011;7908;51.688;7.130;2023-08-31T01:14:41;11.77;;;8.20;;
15616;SDS011;7908;51.688;7.130;2023-08-31T01:17:12;12.87;;;7.87;;
15616;SDS011;7908;51.688;7.130;2023-08-31T01:19:44;11.63;;;7.50;;
15616;SDS011;7908;51.688;7.130;2023-08-31T01:22:18;10.63;;;7.73;;
15616;SDS011;7908;51.688;7.130;2023-08-31T01:24:59;16.63;;;7.90;;
15616;SDS011;7908;51.688;7.130;2023-08-31T01:27:32;13.37;;;8.43;;
15616;SDS011;7908;51.688;7.130;2023-08-31T01:30:00;11.67;;;8.27;;
15616;SDS011;7908;51.688;7.130;2023-08-31T01:32:30;14.23;;;8.67;;
15616;SDS011;7908;51.688;7.130;2023-08-31T01:34:59;11.97;;;8.30;;
15616;SDS011;7908;51.688;7.130;2023-08-31T01:37:34;12.40;;;8.70;;
15616;SDS011;7908;51.688;7.130;2023-08-31T01:40:10;15.07;;;8.93;;
15616;SDS011;7908;51.688;7.130;2023-08-31T01:42:44;12.67;;;8.50;;
15616;SDS011;7908;51.688;7.130;2023-08-31T01:45:15;10.83;;;8.63;;
15616;SDS011;7908;51.688;7.130;2023-08-31T01:47:47;12.90;;;8.23;;
15616;SDS011;7908;51.688;7.130;2023-08-31T01:50:16;12.40;;;8.60;;
15616;SDS011;7908;51.688;7.130;2023-08-31T01:52:45;10.93;;;8.07;;
15616;SDS011;7908;51.688;7.130;2023-08-31T01:55:15;11.50;;;7.47;;
15616;SDS011;7908;51.688;7.130;2023-08-31T01:57:44;15.47;;;7.87;;
15616;SDS011;7908;51.688;7.130;2023-08-31T02:00:13;13.27;;;7.73;;
15616;SDS011;7908;51.688;7.130;2023-08-31T02:02:43;10.93;;;8.27;;
15616;SDS011;7908;51.688;7.130;2023-08-31T02:05:12;15.13;;;8.70;;
15616;SDS011;7908;51.688;7.130;2023-08-31T02:07:40;14.33;;;8.53;;
15616;SDS011;7908;51.688;7.130;2023-08-31T02:10:09;11.17;;;7.87;;
15616;SDS011;7908;51.688;7.130;2023-08-31T02:12:39;12.93;;;9.67;;
15616;SDS011;7908;51.688;7.130;2023-08-31T02:15:08;12.93;;;9.60;;
15616;SDS011;7908;51.688;7.130;2023-08-31T02:17:37;14.20;;;9.20;;
15616;SDS011;7908;51.688;7.130;2023-08-31T02:20:07;13.40;;;9.70;;
15616;SDS011;7908;51.688;7.130;2023-08-31T02:22:36;15.50;;;10.67;;
15616;SDS011;7908;51.688;7.130;2023-08-31T02:25:04;15.20;;;10.20;;
15616;SDS011;7908;51.688;7.130;2023-08-31T02:27:33;14.07;;;10.90;;
15616;SDS011;7908;51.688;7.130;2023-08-31T02:30:04;16.77;;;11.30;;
15616;SDS011;7908;51.688;7.130;2023-08-31T02:32:33;15.67;;;11.30;;
15616;SDS011;7908;51.688;7.130;2023-08-31T02:35:03;13.50;;;11.10;;
15616;SDS011;7908;51.688;7.130;2023-08-31T02:37:32;16.33;;;11.37;;
15616;SDS011;7908;51.688;7.130;2023-08-31T02:40:01;16.87;;;11.73;;
15616;SDS011;7908;51.688;7.130;2023-08-31T02:42:30;15.93;;;12.00;;
15616;SDS011;7908;51.688;7.130;2023-08-31T02:44:58;15.43;;;11.43;;
15616;SDS011;7908;51.688;7.130;2023-08-31T02:47:29;20.63;;;12.87;;
15616;SDS011;7908;51.688;7.130;2023-08-31T02:49:57;19.80;;;13.83;;
15616;SDS011;7908;51.688;7.130;2023-08-31T02:52:26;23.13;;;13.10;;
15616;SDS011;7908;51.688;7.130;2023-08-31T02:54:55;18.70;;;13.93;;
15616;SDS011;7908;51.688;7.130;2023-08-31T02:57:23;20.87;;;13.57;;
15616;SDS011;7908;51.688;7.130;2023-08-31T02:59:52;17.27;;;13.60;;
15616;SDS011;7908;51.688;7.130;2023-08-31T03:02:20;17.97;;;14.97;;
15616;SDS011;7908;51.688;7.130;2023-08-31T03:04:51;19.50;;;14.90;;
15616;SDS011;7908;51.688;7.130;2023-08-31T03:07:19;18.63;;;13.93;;
15616;SDS011;7908;51.688;7.130;2023-08-31T03:09:48;24.90;;;16.03;;
15616;SDS011;7908;51.688;7.130;2023-08-31T03:12:18;23.30;;;16.43;;
15616;SDS011;7908;51.688;7.130;2023-08-31T03:14:47;22.57;;;16.60;;
15616;SDS011;7908;51.688;7.130;2023-08-31T03:17:16;22.37;;;17.47;;
15616;SDS011;7908;51.688;7.130;2023-08-31T03:19:44;23.73;;;17.60;;
15616;SDS011;7908;51.688;7.130;2023-08-31T03:22:14;24.97;;;17.43;;
15616;SDS011;7908;51.688;7.130;2023-08-31T03:24:43;23.73;;;18.10;;
15616;SDS011;7908;51.688;7.130;2023-08-31T03:27:11;27.90;;;19.77;;
15616;SDS011;7908;51.688;7.130;2023-08-31T03:29:40;25.70;;;18.63;;
15616;SDS011;7908;51.688;7.130;2023-08-31T03:32:08;25.53;;;19.73;;
15616;SDS011;7908;51.688;7.130;2023-08-31T03:34:37;27.63;;;20.60;;
15616;SDS011;7908;51.688;7.130;2023-08-31T03:37:06;33.63;;;22.87;;
15616;SDS011;7908;51.688;7.130;2023-08-31T03:39:36;31.13;;;21.43;;
15616;SDS011;7908;51.688;7.130;2023-08-31T03:42:05;33.20;;;22.47;;
15616;SDS011;7908;51.688;7.130;2023-08-31T03:44:34;32.77;;;22.00;;
15616;SDS011;7908;51.688;7.130;2023-08-31T03:47:03;34.97;;;21.90;;
15616;SDS011;7908;51.688;7.130;2023-08-31T03:49:32;31.60;;;21.53;;
15616;SDS011;7908;51.688;7.130;2023-08-31T03:52:03;30.83;;;21.20;;
15616;SDS011;7908;51.688;7.130;2023-08-31T03:54:32;31.43;;;22.30;;
15616;SDS011;7908;51.688;7.130;2023-08-31T03:57:02;32.20;;;21.07;;
15616;SDS011;7908;51.688;7.130;2023-08-31T03:59:31;33.00;;;22.80;;
15616;SDS011;7908;51.688;7.130;2023-08-31T04:01:59;31.33;;;23.83;;
15616;SDS011;7908;51.688;7.130;2023-08-31T04:04:27;32.13;;;23.60;;
15616;SDS011;7908;51.688;7.130;2023-08-31T04:06:56;32.50;;;24.33;;
15616;SDS011;7908;51.688;7.130;2023-08-31T04:09:24;37.47;;;24.33;;
15616;SDS011;7908;51.688;7.130;2023-08-31T04:11:53;33.77;;;24.50;;
15616;SDS011;7908;51.688;7.130;2023-08-31T04:14:25;36.10;;;25.70;;
15616;SDS011;7908;51.688;7.130;2023-08-31T04:16:54;41.20;;;26.23;;
15616;SDS011;7908;51.688;7.130;2023-08-31T04:19:22;36.40;;;25.83;;
15616;SDS011;7908;51.688;7.130;2023-08-31T04:21:51;36.90;;;25.57;;
15616;SDS011;7908;51.688;7.130;2023-08-31T04:24:20;36.87;;;25.70;;
15616;SDS011;7908;51.688;7.130;2023-08-31T04:26:49;36.07;;;26.60;;
15616;SDS011;7908;51.688;7.130;2023-08-31T04:29:18;38.67;;;26.37;;
15616;SDS011;7908;51.688;7.130;2023-08-31T04:31:48;36.40;;;26.17;;
15616;SDS011;7908;51.688;7.130;2023-08-31T04:34:16;35.57;;;25.47;;
15616;SDS011;7908;51.688;7.130;2023-08-31T04:36:45;34.73;;;25.07;;
15616;SDS011;7908;51.688;7.130;2023-08-31T04:39:13;36.30;;;24.73;;
15616;SDS011;7908;51.688;7.130;2023-08-31T04:41:45;34.83;;;24.87;;
15616;SDS011;7908;51.688;7.130;2023-08-31T04:44:14;35.70;;;24.50;;
15616;SDS011;7908;51.688;7.130;2023-08-31T04:46:43;37.93;;;25.27;;
15616;SDS011;7908;51.688;7.130;2023-08-31T04:49:13;39.37;;;26.03;;
15616;SDS011;7908;51.688;7.130;2023-08-31T04:51:43;40.07;;;27.27;;
15616;SDS011;7908;51.688;7.130;2023-08-31T04:54:12;45.97;;;26.73;;
15616;SDS011;7908;51.688;7.130;2023-08-31T04:56:41;40.20;;;27.10;;
15616;SDS011;7908;51.688;7.130;2023-08-31T04:59:11;40.97;;;26.53;;
15616;SDS011;7908;51.688;7.130;2023-08-31T05:01:40;45.87;;;28.63;;
15616;SDS011;7908;51.688;7.130;2023-08-31T05:04:09;45.10;;;29.17;;
15616;SDS011;7908;51.688;7.130;2023-08-31T05:06:39;46.37;;;28.87;;
15616;SDS011;7908;51.688;7.130;2023-08-31T05:09:08;46.73;;;28.23;;
15616;SDS011;7908;51.688;7.130;2023-08-31T05:11:37;43.63;;;28.43;;
15616;SDS011;7908;51.688;7.130;2023-08-31T05:14:05;43.77;;;27.07;;
15616;SDS011;7908;51.688;7.130;2023-08-31T05:16:34;45.53;;;28.90;;
15616;SDS011;7908;51.688;7.130;2023-08-31T05:19:03;47.73;;;29.33;;
15616;SDS011;7908;51.688;7.130;2023-08-31T05:21:31;50.03;;;31.17;;
15616;SDS011;7908;51.688;7.130;2023-08-31T05:24:01;57.40;;;35.63;;
15616;SDS011;7908;51.688;7.130;2023-08-31T05:26:31;61.90;;;36.80;;
15616;SDS011;7908;51.688;7.130;2023-08-31T05:28:59;66.10;;;38.90;;
15616;SDS011;7908;51.688;7.130;2023-08-31T05:31:30;73.97;;;40.43;;
15616;SDS011;7908;51.688;7.130;2023-08-31T05:34:00;69.17;;;40.30;;
15616;SDS011;7908;51.688;7.130;2023-08-31T05:36:28;70.50;;;40.37;;
15616;SDS011;7908;51.688;7.130;2023-08-31T05:38:57;73.07;;;40.77;;
15616;SDS011;7908;51.688;7.130;2023-08-31T05:41:28;68.07;;;40.03;;
15616;SDS011;7908;51.688;7.130;2023-08-31T05:43:56;71.33;;;40.23;;
15616;SDS011;7908;51.688;7.130;2023-08-31T05:46:26;62.43;;;38.20;;
15616;SDS011;7908;51.688;7.130;2023-08-31T05:48:55;66.00;;;37.03;;
15616;SDS011;7908;51.688;7.130;2023-08-31T05:51:24;54.13;;;35.77;;
15616;SDS011;7908;51.688;7.130;2023-08-31T05:53:55;55.93;;;35.70;;
15616;SDS011;7908;51.688;7.130;2023-08-31T05:56:24;54.17;;;34.60;;
15616;SDS011;7908;51.688;7.130;2023-08-31T05:58:54;49.87;;;34.43;;
15616;SDS011;7908;51.688;7.130;2023-08-31T06:01:24;46.67;;;33.50;;
15616;SDS011;7908;51.688;7.130;2023-08-31T06:03:53;46.57;;;32.83;;
15616;SDS011;7908;51.688;7.130;2023-08-31T06:06:21;46.53;;;32.70;;
15616;SDS011;7908;51.688;7.130;2023-08-31T06:08:50;42.63;;;32.13;;
15616;SDS011;7908;51.688;7.130;2023-08-31T06:11:20;43.07;;;32.63;;
15616;SDS011;7908;51.688;7.130;2023-08-31T06:13:49;40.87;;;32.50;;
15616;SDS011;7908;51.688;7.130;2023-08-31T06:16:19;43.00;;;33.67;;
15616;SDS011;7908;51.688;7.130;2023-08-31T06:18:49;38.87;;;32.03;;
15616;SDS011;7908;51.688;7.130;2023-08-31T06:21:21;37.60;;;30.57;;
15616;SDS011;7908;51.688;7.130;2023-08-31T06:23:51;37.77;;;29.17;;
15616;SDS011;7908;51.688;7.130;2023-08-31T06:26:20;44.73;;;32.87;;
15616;SDS011;7908;51.688;7.130;2023-08-31T06:28:49;39.63;;;32.13;;
15616;SDS011;7908;51.688;7.130;2023-08-31T06:31:20;38.70;;;31.23;;
15616;SDS011;7908;51.688;7.130;2023-08-31T06:33:48;35.43;;;30.67;;
15616;SDS011;7908;51.688;7.130;2023-08-31T06:36:17;38.00;;;29.77;;
15616;SDS011;7908;51.688;7.130;2023-08-31T06:38:46;34.00;;;28.83;;
15616;SDS011;7908;51.688;7.130;2023-08-31T06:41:15;33.17;;;29.57;;
15616;SDS011;7908;51.688;7.130;2023-08-31T06:43:45;35.57;;;30.27;;
15616;SDS011;7908;51.688;7.130;2023-08-31T06:46:14;35.87;;;29.67;;
15616;SDS011;7908;51.688;7.130;2023-08-31T06:48:51;36.87;;;29.30;;
15616;SDS011;7908;51.688;7.130;2023-08-31T06:51:20;35.13;;;30.73;;
15616;SDS011;7908;51.688;7.130;2023-08-31T06:53:50;31.80;;;28.60;;
15616;SDS011;7908;51.688;7.130;2023-08-31T06:56:20;30.60;;;26.37;;
15616;SDS011;7908;51.688;7.130;2023-08-31T06:58:49;28.90;;;25.80;;
15616;SDS011;7908;51.688;7.130;2023-08-31T07:01:18;24.57;;;21.97;;
15616;SDS011;7908;51.688;7.130;2023-08-31T07:03:47;21.67;;;19.50;;
15616;SDS011;7908;51.688;7.130;2023-08-31T07:06:20;22.50;;;17.97;;
15616;SDS011;7908;51.688;7.130;2023-08-31T07:08:48;18.33;;;16.47;;
15616;SDS011;7908;51.688;7.130;2023-08-31T07:11:17;17.30;;;15.07;;
15616;SDS011;7908;51.688;7.130;2023-08-31T07:13:46;14.80;;;13.00;;
15616;SDS011;7908;51.688;7.130;2023-08-31T07:16:15;12.90;;;11.57;;
15616;SDS011;7908;51.688;7.130;2023-08-31T07:18:44;11.40;;;9.87;;
15616;SDS011;7908;51.688;7.130;2023-08-31T07:21:15;12.07;;;9.70;;
15616;SDS011;7908;51.688;7.130;2023-08-31T07:23:45;10.00;;;9.00;;
15616;SDS011;7908;51.688;7.130;2023-08-31T07:26:15;11.20;;;8.87;;
15616;SDS011;7908;51.688;7.130;2023-08-31T07:28:43;8.53;;;7.73;;
15616;SDS011;7908;51.688;7.130;2023-08-31T07:31:12;9.13;;;7.73;;
15616;SDS011;7908;51.688;7.130;2023-08-31T07:33:43;10.90;;;7.27;;
15616;SDS011;7908;51.688;7.130;2023-08-31T07:36:12;11.00;;;7.27;;
15616;SDS011;7908;51.688;7.130;2023-08-31T07:38:42;9.70;;;7.33;;
15616;SDS011;7908;51.688;7.130;2023-08-31T07:41:12;9.20;;;6.87;;
15616;SDS011;7908;51.688;7.130;2023-08-31T07:43:41;7.33;;;6.47;;
15616;SDS011;7908;51.688;7.130;2023-08-31T07:46:29;8.13;;;6.50;;
15616;SDS011;7908;51.688;7.130;2023-08-31T07:48:58;7.40;;;5.87;;
15616;SDS011;7908;51.688;7.130;2023-08-31T07:51:27;9.67;;;5.80;;
15616;SDS011;7908;51.688;7.130;2023-08-31T07:53:56;8.13;;;5.00;;
15616;SDS011;7908;51.688;7.130;2023-08-31T07:56:27;6.63;;;5.47;;
15616;SDS011;7908;51.688;7.130;2023-08-31T07:58:56;8.30;;;5.50;;
15616;SDS011;7908;51.688;7.130;2023-08-31T08:01:25;7.00;;;4.90;;
15616;SDS011;7908;51.688;7.130;2023-08-31T08:03:57;7.17;;;5.03;;
15616;SDS011;7908;51.688;7.130;2023-08-31T08:06:26;6.37;;;4.80;;
15616;SDS011;7908;51.688;7.130;2023-08-31T08:08:55;6.07;;;4.40;;
15616;SDS011;7908;51.688;7.130;2023-08-31T08:11:26;5.87;;;4.47;;
15616;SDS011;7908;51.688;7.130;2023-08-31T08:14:02;6.97;;;5.03;;
15616;SDS011;7908;51.688;7.130;2023-08-31T08:16:31;5.00;;;4.50;;
15616;SDS011;7908;51.688;7.130;2023-08-31T08:19:02;5.63;;;4.47;;
15616;SDS011;7908;51.688;7.130;2023-08-31T08:21:32;8.57;;;4.60;;
15616;SDS011;7908;51.688;7.130;2023-08-31T08:24:00;6.23;;;4.07;;
15616;SDS011;7908;51.688;7.130;2023-08-31T08:26:29;7.67;;;4.07;;
15616;SDS011;7908;51.688;7.130;2023-08-31T08:29:00;5.40;;;3.47;;
15616;SDS011;7908;51.688;7.130;2023-08-31T08:31:29;6.53;;;3.60;;
15616;SDS011;7908;51.688;7.130;2023-08-31T08:33:59;3.93;;;3.13;;
15616;SDS011;7908;51.688;7.130;2023-08-31T08:36:30;4.57;;;3.40;;
15616;SDS011;7908;51.688;7.130;2023-08-31T08:38:59;7.03;;;3.20;;
15616;SDS011;7908;51.688;7.130;2023-08-31T08:41:28;4.80;;;3.20;;
15616;SDS011;7908;51.688;7.130;2023-08-31T08:44:01;4.90;;;3.20;;
15616;SDS011;7908;51.688;7.130;2023-08-31T08:46:33;3.80;;;2.90;;
15616;SDS011;7908;51.688;7.130;2023-08-31T08:49:03;5.27;;;3.00;;
15616;SDS011;7908;51.688;7.130;2023-08-31T08:51:33;5.87;;;3.17;;
15616;SDS011;7908;51.688;7.130;2023-08-31T08:54:03;3.77;;;3.03;;
15616;SDS011;7908;51.688;7.130;2023-08-31T08:56:32;4.30;;;2.80;;
15616;SDS011;7908;51.688;7.130;2023-08-31T08:59:03;4.73;;;2.50;;
15616;SDS011;7908;51.688;7.130;2023-08-31T09:01:31;5.03;;;2.60;;
15616;SDS011;7908;51.688;7.130;2023-08-31T09:04:02;3.97;;;2.30;;
15616;SDS011;7908;51.688;7.130;2023-08-31T09:06:32;3.60;;;2.67;;
15616;SDS011;7908;51.688;7.130;2023-08-31T09:09:03;5.20;;;3.00;;
15616;SDS011;7908;51.688;7.130;2023-08-31T09:11:36;2.87;;;2.50;;
15616;SDS011;7908;51.688;7.130;2023-08-31T09:14:16;5.03;;;2.37;;
15616;SDS011;7908;51.688;7.130;2023-08-31T09:16:47;3.50;;;2.30;;
15616;SDS011;7908;51.688;7.130;2023-08-31T09:19:18;5.47;;;2.90;;
15616;SDS011;7908;51.688;7.130;2023-08-31T09:21:48;3.33;;;2.30;;
15616;SDS011;7908;51.688;7.130;2023-08-31T09:24:18;7.00;;;2.17;;
15616;SDS011;7908;51.688;7.130;2023-08-31T09:26:48;5.20;;;2.80;;
15616;SDS011;7908;51.688;7.130;2023-08-31T09:29:23;3.57;;;2.20;;
15616;SDS011;7908;51.688;7.130;2023-08-31T09:31:52;6.20;;;2.20;;
15616;SDS011;7908;51.688;7.130;2023-08-31T09:34:32;3.97;;;2.73;;
15616;SDS011;7908;51.688;7.130;2023-08-31T09:37:05;2.73;;;2.20;;
15616;SDS011;7908;51.688;7.130;2023-08-31T09:39:37;5.57;;;2.50;;
15616;SDS011;7908;51.688;7.130;2023-08-31T09:42:08;3.70;;;2.47;;
15616;SDS011;7908;51.688;7.130;2023-08-31T09:44:42;6.33;;;2.70;;
15616;SDS011;7908;51.688;7.130;2023-08-31T09:47:13;10.23;;;2.83;;
15616;SDS011;7908;51.688;7.130;2023-08-31T09:49:43;4.87;;;2.60;;
15616;SDS011;7908;51.688;7.130;2023-08-31T09:52:12;6.20;;;2.80;;
15616;SDS011;7908;51.688;7.130;2023-08-31T09:54:43;4.77;;;2.60;;
15616;SDS011;7908;51.688;7.130;2023-08-31T09:57:13;4.40;;;2.40;;
15616;SDS011;7908;51.688;7.130;2023-08-31T09:59:56;3.63;;;2.80;;
15616;SDS011;7908;51.688;7.130;2023-08-31T10:02:27;5.13;;;2.50;;
15616;SDS011;7908;51.688;7.130;2023-08-31T10:05:01;4.97;;;2.20;;
15616;SDS011;7908;51.688;7.130;2023-08-31T10:07:31;3.50;;;2.10;;
15616;SDS011;7908;51.688;7.130;2023-08-31T10:10:00;3.73;;;2.20;;
15616;SDS011;7908;51.688;7.130;2023-08-31T10:12:31;3.63;;;2.00;;
15616;SDS011;7908;51.688;7.130;2023-08-31T10:15:02;6.33;;;2.50;;
15616;SDS011;7908;51.688;7.130;2023-08-31T10:17:40;5.13;;;2.77;;
15616;SDS011;7908;51.688;7.130;2023-08-31T10:20:11;4.00;;;3.60;;
15616;SDS011;7908;51.688;7.130;2023-08-31T10:22:42;3.57;;;2.77;;
15616;SDS011;7908;51.688;7.130;2023-08-31T10:25:14;4.47;;;2.70;;
15616;SDS011;7908;51.688;7.130;2023-08-31T10:27:46;5.37;;;2.83;;
15616;SDS011;7908;51.688;7.130;2023-08-31T10:30:28;4.07;;;2.30;;
15616;SDS011;7908;51.688;7.130;2023-08-31T10:35:51;4.63;;;2.17;;
15616;SDS011;7908;51.688;7.130;2023-08-31T10:38:25;6.57;;;2.20;;
15616;SDS011;7908;51.688;7.130;2023-08-31T10:41:02;5.20;;;2.57;;
15616;SDS011;7908;51.688;7.130;2023-08-31T10:43:51;5.20;;;2.73;;
15616;SDS011;7908;51.688;7.130;2023-08-31T10:46:26;4.73;;;2.53;;
15616;SDS011;7908;51.688;7.130;2023-08-31T10:48:57;4.60;;;2.80;;
15616;SDS011;7908;51.688;7.130;2023-08-31T10:51:31;3.70;;;2.47;;
15616;SDS011;7908;51.688;7.130;2023-08-31T10:54:10;4.93;;;2.80;;
15616;SDS011;7908;51.688;7.130;2023-08-31T10:57:00;6.63;;;3.23;;
15616;SDS011;7908;51.688;7.130;2023-08-31T10:59:42;6.70;;;2.90;;
15616;SDS011;7908;51.688;7.130;2023-08-31T11:02:33;7.30;;;3.47;;
15616;SDS011;7908;51.688;7.130;2023-08-31T11:05:07;7.00;;;4.03;;
15616;SDS011;7908;51.688;7.130;2023-08-31T11:07:37;9.20;;;4.27;;
15616;SDS011;7908;51.688;7.130;2023-08-31T11:10:11;6.33;;;4.13;;
15616;SDS011;7908;51.688;7.130;2023-08-31T11:12:43;6.43;;;3.73;;
15616;SDS011;7908;51.688;7.130;2023-08-31T11:15:14;5.80;;;3.43;;
15616;SDS011;7908;51.688;7.130;2023-08-31T11:17:46;4.60;;;3.43;;
15616;SDS011;7908;51.688;7.130;2023-08-31T11:20:20;5.63;;;3.77;;
15616;SDS011;7908;51.688;7.130;2023-08-31T11:22:49;8.73;;;3.90;;
15616;SDS011;7908;51.688;7.130;2023-08-31T11:25:25;5.43;;;3.13;;
15616;SDS011;7908;51.688;7.130;2023-08-31T11:28:08;4.50;;;3.43;;
15616;SDS011;7908;51.688;7.130;2023-08-31T11:30:37;6.67;;;3.80;;
15616;SDS011;7908;51.688;7.130;2023-08-31T11:33:13;5.07;;;3.27;;
15616;SDS011;7908;51.688;7.130;2023-08-31T11:35:43;3.77;;;3.07;;
15616;SDS011;7908;51.688;7.130;2023-08-31T11:38:12;3.50;;;2.90;;
15616;SDS011;7908;51.688;7.130;2023-08-31T11:40:42;4.43;;;2.83;;
15616;SDS011;7908;51.688;7.130;2023-08-31T11:43:14;4.90;;;3.03;;
15616;SDS011;7908;51.688;7.130;2023-08-31T11:45:44;6.07;;;3.37;;
15616;SDS011;7908;51.688;7.130;2023-08-31T11:48:16;5.93;;;4.10;;
15616;SDS011;7908;51.688;7.130;2023-08-31T11:50:45;6.90;;;3.53;;
15616;SDS011;7908;51.688;7.130;2023-08-31T11:53:15;7.03;;;2.40;;
15616;SDS011;7908;51.688;7.130;2023-08-31T11:55:50;5.27;;;1.90;;
15616;SDS011;7908;51.688;7.130;2023-08-31T11:58:21;5.80;;;2.30;;
15616;SDS011;7908;51.688;7.130;2023-08-31T12:01:00;5.60;;;2.50;;
15616;SDS011;7908;51.688;7.130;2023-08-31T12:03:41;4.70;;;2.27;;
15616;SDS011;7908;51.688;7.130;2023-08-31T12:06:16;5.07;;;2.33;;
15616;SDS011;7908;51.688;7.130;2023-08-31T12:08:46;3.80;;;1.70;;
15616;SDS011;7908;51.688;7.130;2023-08-31T12:11:18;5.33;;;2.40;;
15616;SDS011;7908;51.688;7.130;2023-08-31T12:13:48;8.57;;;2.00;;
15616;SDS011;7908;51.688;7.130;2023-08-31T12:16:18;3.33;;;1.80;;
15616;SDS011;7908;51.688;7.130;2023-08-31T12:18:51;3.33;;;1.70;;
15616;SDS011;7908;51.688;7.130;2023-08-31T12:21:21;2.83;;;1.30;;
15616;SDS011;7908;51.688;7.130;2023-08-31T12:23:50;3.47;;;1.70;;
15616;SDS011;7908;51.688;7.130;2023-08-31T12:26:19;2.77;;;1.40;;
15616;SDS011;7908;51.688;7.130;2023-08-31T12:28:48;4.80;;;1.67;;
15616;SDS011;7908;51.688;7.130;2023-08-31T12:31:24;5.37;;;1.60;;
15616;SDS011;7908;51.688;7.130;2023-08-31T12:33:54;4.30;;;1.33;;
15616;SDS011;7908;51.688;7.130;2023-08-31T12:36:23;4.23;;;1.60;;
15616;SDS011;7908;51.688;7.130;2023-08-31T12:38:52;3.27;;;1.50;;
15616;SDS011;7908;51.688;7.130;2023-08-31T12:41:23;3.00;;;1.67;;
15616;SDS011;7908;51.688;7.130;2023-08-31T12:43:56;3.33;;;1.70;;
15616;SDS011;7908;51.688;7.130;2023-08-31T12:46:26;4.03;;;1.40;;
15616;SDS011;7908;51.688;7.130;2023-08-31T12:48:57;2.67;;;1.50;;
15616;SDS011;7908;51.688;7.130;2023-08-31T12:51:37;2.60;;;1.30;;
15616;SDS011;7908;51.688;7.130;2023-08-31T12:54:06;5.73;;;1.90;;
15616;SDS011;7908;51.688;7.130;2023-08-31T12:56:35;4.50;;;1.87;;
15616;SDS011;7908;51.688;7.130;2023-08-31T12:59:05;4.80;;;1.80;;
15616;SDS011;7908;51.688;7.130;2023-08-31T13:01:41;4.30;;;1.70;;
15616;SDS011;7908;51.688;7.130;2023-08-31T13:04:12;3.47;;;1.77;;
15616;SDS011;7908;51.688;7.130;2023-08-31T13:06:41;2.07;;;1.60;;
15616;SDS011;7908;51.688;7.130;2023-08-31T13:09:20;2.97;;;1.37;;
15616;SDS011;7908;51.688;7.130;2023-08-31T13:11:50;3.00;;;1.60;;
15616;SDS011;7908;51.688;7.130;2023-08-31T13:14:20;7.43;;;1.53;;
15616;SDS011;7908;51.688;7.130;2023-08-31T13:16:50;4.97;;;1.53;;
15616;SDS011;7908;51.688;7.130;2023-08-31T13:19:32;4.13;;;1.40;;
15616;SDS011;7908;51.688;7.130;2023-08-31T13:22:01;4.23;;;1.70;;
15616;SDS011;7908;51.688;7.130;2023-08-31T13:24:30;3.80;;;1.80;;
15616;SDS011;7908;51.688;7.130;2023-08-31T13:27:00;3.37;;;2.10;;
15616;SDS011;7908;51.688;7.130;2023-08-31T13:29:31;3.07;;;1.33;;
15616;SDS011;7908;51.688;7.130;2023-08-31T13:32:04;2.63;;;1.20;;
15616;SDS011;7908;51.688;7.130;2023-08-31T13:34:35;2.77;;;0.90;;
15616;SDS011;7908;51.688;7.130;2023-08-31T13:37:08;2.93;;;1.10;;
15616;SDS011;7908;51.688;7.130;2023-08-31T13:39:41;4.17;;;1.53;;
15616;SDS011;7908;51.688;7.130;2023-08-31T13:42:11;1.60;;;1.13;;
15616;SDS011;7908;51.688;7.130;2023-08-31T13:45:02;1.90;;;1.30;;
15616;SDS011;7908;51.688;7.130;2023-08-31T13:47:36;2.90;;;1.03;;
15616;SDS011;7908;51.688;7.130;2023-08-31T13:50:19;4.17;;;1.30;;
15616;SDS011;7908;51.688;7.130;2023-08-31T13:52:57;3.43;;;1.00;;
15616;SDS011;7908;51.688;7.130;2023-08-31T13:55:41;2.97;;;1.10;;
15616;SDS011;7908;51.688;7.130;2023-08-31T13:58:12;3.33;;;1.53;;
15616;SDS011;7908;51.688;7.130;2023-08-31T14:00:47;4.87;;;1.40;;
15616;SDS011;7908;51.688;7.130;2023-08-31T14:03:28;2.97;;;1.63;;
15616;SDS011;7908;51.688;7.130;2023-08-31T14:06:01;3.10;;;1.10;;
15616;SDS011;7908;51.688;7.130;2023-08-31T14:08:39;5.10;;;2.30;;
15616;SDS011;7908;51.688;7.130;2023-08-31T14:11:09;6.43;;;4.07;;
15616;SDS011;7908;51.688;7.130;2023-08-31T14:13:46;4.83;;;3.40;;
15616;SDS011;7908;51.688;7.130;2023-08-31T14:16:38;4.23;;;2.70;;
15616;SDS011;7908;51.688;7.130;2023-08-31T14:19:09;3.40;;;2.27;;
15616;SDS011;7908;51.688;7.130;2023-08-31T14:21:51;3.80;;;1.93;;
15616;SDS011;7908;51.688;7.130;2023-08-31T14:24:26;3.70;;;2.30;;
15616;SDS011;7908;51.688;7.130;2023-08-31T14:27:03;2.63;;;1.97;;
15616;SDS011;7908;51.688;7.130;2023-08-31T14:29:36;4.67;;;2.40;;
15616;SDS011;7908;51.688;7.130;2023-08-31T14:32:09;4.13;;;2.60;;
15616;SDS011;7908;51.688;7.130;2023-08-31T14:34:39;5.37;;;3.10;;
15616;SDS011;7908;51.688;7.130;2023-08-31T14:37:11;5.10;;;2.77;;
15616;SDS011;7908;51.688;7.130;2023-08-31T14:39:42;5.47;;;2.93;;
15616;SDS011;7908;51.688;7.130;2023-08-31T14:42:15;4.07;;;3.20;;
15616;SDS011;7908;51.688;7.130;2023-08-31T14:44:53;5.77;;;3.33;;
15616;SDS011;7908;51.688;7.130;2023-08-31T14:47:22;4.77;;;3.53;;
15616;SDS011;7908;51.688;7.130;2023-08-31T14:49:54;5.83;;;3.70;;
15616;SDS011;7908;51.688;7.130;2023-08-31T14:52:33;6.17;;;3.50;;
15616;SDS011;7908;51.688;7.130;2023-08-31T14:55:04;4.23;;;2.77;;
15616;SDS011;7908;51.688;7.130;2023-08-31T14:57:36;6.20;;;2.93;;
15616;SDS011;7908;51.688;7.130;2023-08-31T15:00:22;3.77;;;2.80;;
15616;SDS011;7908;51.688;7.130;2023-08-31T15:02:54;5.33;;;3.97;;
15616;SDS011;7908;51.688;7.130;2023-08-31T15:05:30;4.90;;;3.20;;
15616;SDS011;7908;51.688;7.130;2023-08-31T15:08:08;5.90;;;3.63;;
15616;SDS011;7908;51.688;7.130;2023-08-31T15:10:39;3.93;;;3.27;;
15616;SDS011;7908;51.688;7.130;2023-08-31T15:13:10;5.30;;;3.40;;
15616;SDS011;7908;51.688;7.130;2023-08-31T15:15:43;6.17;;;3.37;;
15616;SDS011;7908;51.688;7.130;2023-08-31T15:18:17;4.60;;;2.97;;